createdAt,value
2018-11-01T00:00:41.070Z,2.55
2018-11-01T00:03:09.271Z,7.85
2018-11-01T00:05:37.443Z,2.30
2018-11-01T00:08:05.966Z,2.50
2018-11-01T00:10:34.117Z,2.60
2018-11-01T00:13:02.324Z,3.40
2018-11-01T00:15:30.498Z,6.20
2018-11-01T00:17:58.685Z,5.08
2018-11-01T00:20:26.885Z,2.30
2018-11-01T00:22:55.057Z,3.10
2018-11-01T00:25:23.242Z,2.27
2018-11-01T00:27:51.444Z,5.05
2018-11-01T00:30:19.664Z,5.40
2018-11-01T00:32:47.820Z,3.90
2018-11-01T00:35:15.998Z,2.95
2018-11-01T00:37:44.187Z,2.95
2018-11-01T00:40:14.113Z,3.67
2018-11-01T00:42:42.722Z,2.92
2018-11-01T00:45:11.718Z,3.58
2018-11-01T00:47:39.922Z,2.83
2018-11-01T00:50:10.554Z,4.05
2018-11-01T00:52:39.055Z,2.83
2018-11-01T00:55:07.855Z,4.80
2018-11-01T00:57:36.031Z,3.85
2018-11-01T01:00:04.786Z,2.98
2018-11-01T01:02:32.922Z,5.62
2018-11-01T01:05:01.094Z,3.22
2018-11-01T01:07:29.274Z,2.55
2018-11-01T01:09:57.474Z,3.35
2018-11-01T01:12:25.659Z,2.55
2018-11-01T01:14:53.847Z,3.35
2018-11-01T01:17:22.026Z,3.33
2018-11-01T01:19:50.222Z,2.80
2018-11-01T01:22:18.398Z,2.70
2018-11-01T01:24:46.590Z,3.08
2018-11-01T01:27:14.774Z,6.78
2018-11-01T01:29:42.974Z,2.72
2018-11-01T01:32:11.145Z,2.50
2018-11-01T01:34:39.408Z,3.60
2018-11-01T01:37:07.533Z,5.90
2018-11-01T01:39:35.726Z,2.50
2018-11-01T01:42:04.068Z,3.70
2018-11-01T01:44:32.206Z,2.20
2018-11-01T01:47:00.374Z,3.62
2018-11-01T01:49:28.566Z,2.00
2018-11-01T01:51:56.746Z,4.20
2018-11-01T01:54:24.942Z,3.33
2018-11-01T01:56:53.118Z,2.17
2018-11-01T01:59:21.318Z,3.17
2018-11-01T02:01:49.489Z,1.95
2018-11-01T02:04:17.690Z,5.08
2018-11-01T02:06:45.870Z,3.77
2018-11-01T02:09:14.062Z,4.12
2018-11-01T02:11:43.625Z,2.12
2018-11-01T02:14:11.814Z,1.95
2018-11-01T02:16:40.165Z,3.15
2018-11-01T02:19:08.774Z,3.12
2018-11-01T02:21:37.158Z,2.98
2018-11-01T02:24:05.411Z,4.15
2018-11-01T02:26:33.541Z,3.47
2018-11-01T02:29:01.669Z,2.17
2018-11-01T02:31:29.868Z,2.77
2018-11-01T02:33:58.015Z,2.30
2018-11-01T02:36:26.172Z,2.70
2018-11-01T02:38:54.358Z,2.12
2018-11-01T02:41:22.537Z,2.25
2018-11-01T02:43:50.738Z,3.50
2018-11-01T02:46:18.926Z,4.47
2018-11-01T02:48:47.100Z,3.33
2018-11-01T02:51:15.302Z,2.33
2018-11-01T02:53:43.503Z,2.05
2018-11-01T02:56:11.678Z,2.75
2018-11-01T02:58:39.852Z,3.33
2018-11-01T03:01:08.036Z,2.55
2018-11-01T03:03:36.201Z,3.62
2018-11-01T03:06:04.582Z,2.15
2018-11-01T03:08:32.686Z,5.10
2018-11-01T03:11:00.877Z,1.72
2018-11-01T03:13:29.061Z,3.12
2018-11-01T03:15:57.254Z,3.62
2018-11-01T03:18:25.445Z,2.30
2018-11-01T03:20:53.626Z,3.75
2018-11-01T03:23:21.924Z,2.00
2018-11-01T03:25:50.107Z,2.33
2018-11-01T03:28:18.290Z,2.00
2018-11-01T03:30:46.491Z,2.10
2018-11-01T03:33:14.658Z,2.37
2018-11-01T03:35:42.950Z,3.33
2018-11-01T03:38:11.120Z,2.47
2018-11-01T03:40:39.221Z,2.62
2018-11-01T03:43:07.418Z,1.80
2018-11-01T03:45:35.622Z,2.10
2018-11-01T03:48:03.781Z,2.02
2018-11-01T03:50:32.002Z,2.77
2018-11-01T03:53:00.155Z,2.45
2018-11-01T03:55:28.355Z,2.35
2018-11-01T03:57:56.522Z,3.67
2018-11-01T04:00:24.718Z,2.05
2018-11-01T04:02:52.893Z,2.30
2018-11-01T04:05:21.095Z,2.47
2018-11-01T04:07:49.273Z,2.35
2018-11-01T04:10:17.476Z,1.95
2018-11-01T04:12:45.646Z,3.95
2018-11-01T04:15:14.682Z,2.15
2018-11-01T04:17:42.857Z,3.87
2018-11-01T04:20:12.281Z,4.17
2018-11-01T04:22:40.886Z,2.65
2018-11-01T04:25:09.077Z,1.90
2018-11-01T04:27:37.247Z,4.78
2018-11-01T04:30:05.998Z,2.52
2018-11-01T04:32:34.126Z,2.55
2018-11-01T04:35:02.293Z,3.12
2018-11-01T04:37:30.495Z,2.27
2018-11-01T04:39:58.674Z,6.53
2018-11-01T04:42:26.870Z,4.37
2018-11-01T04:44:55.123Z,2.52
2018-11-01T04:47:23.345Z,2.80
2018-11-01T04:49:51.514Z,2.20
2018-11-01T04:52:19.617Z,2.37
2018-11-01T04:54:47.795Z,2.98
2018-11-01T04:57:15.997Z,4.05
2018-11-01T04:59:44.210Z,2.95
2018-11-01T05:02:12.386Z,3.00
2018-11-01T05:04:40.554Z,2.25
2018-11-01T05:07:08.661Z,2.47
2018-11-01T05:09:36.824Z,4.22
2018-11-01T05:12:05.026Z,2.40
2018-11-01T05:14:33.210Z,2.55
2018-11-01T05:17:01.397Z,3.40
2018-11-01T05:19:29.578Z,5.83
2018-11-01T05:21:57.776Z,10.93
2018-11-01T05:24:25.950Z,2.90
2018-11-01T05:26:54.138Z,3.22
2018-11-01T05:29:22.363Z,5.60
2018-11-01T05:31:50.510Z,4.33
2018-11-01T05:34:18.713Z,5.97
2018-11-01T05:36:46.890Z,2.90
2018-11-01T05:39:15.069Z,2.90
2018-11-01T05:41:43.272Z,6.87
2018-11-01T05:44:11.451Z,6.42
2018-11-01T05:46:39.639Z,3.20
2018-11-01T05:49:08.542Z,4.90
2018-11-01T05:51:36.726Z,4.67
2018-11-01T05:54:05.335Z,4.42
2018-11-01T05:56:33.497Z,3.20
2018-11-01T05:59:01.670Z,3.80
2018-11-01T06:01:31.837Z,5.00
2018-11-01T06:04:00.275Z,4.72
2018-11-01T06:06:28.521Z,3.33
2018-11-01T06:08:56.685Z,3.85
2018-11-01T06:11:24.905Z,6.78
2018-11-01T06:13:53.055Z,5.22
2018-11-01T06:16:21.258Z,4.53
2018-11-01T06:18:49.426Z,6.30
2018-11-01T06:21:17.605Z,6.35
2018-11-01T06:23:45.693Z,6.78
2018-11-01T06:26:13.889Z,12.63
2018-11-01T06:28:42.086Z,12.68
2018-11-01T06:31:10.262Z,12.18
2018-11-01T06:33:38.470Z,11.28
2018-11-01T06:36:08.809Z,25.15
2018-11-01T06:38:36.990Z,31.10
2018-11-01T06:41:05.162Z,25.88
2018-11-01T06:43:33.377Z,28.55
2018-11-01T06:46:01.545Z,24.10
2018-11-01T06:48:29.735Z,25.52
2018-11-01T06:50:57.909Z,20.97
2018-11-01T06:53:26.114Z,17.15
2018-11-01T06:55:54.285Z,15.03
2018-11-01T06:58:22.517Z,17.37
2018-11-01T07:00:50.591Z,18.67
2018-11-01T07:03:18.745Z,14.95
2018-11-01T07:05:46.940Z,14.03
2018-11-01T07:08:15.121Z,17.35
2018-11-01T07:10:43.310Z,16.95
2018-11-01T07:13:11.409Z,16.93
2018-11-01T07:15:39.573Z,9.85
2018-11-01T07:18:07.766Z,4.72
2018-11-01T07:20:35.943Z,3.65
2018-11-01T07:23:04.217Z,6.83
2018-11-01T07:25:32.525Z,8.25
2018-11-01T07:28:00.614Z,4.72
2018-11-01T07:30:28.805Z,3.85
2018-11-01T07:32:57.049Z,6.45
2018-11-01T07:35:25.168Z,4.15
2018-11-01T07:37:53.365Z,3.22
2018-11-01T07:40:21.553Z,3.60
2018-11-01T07:42:49.750Z,5.70
2018-11-01T07:45:17.943Z,3.40
2018-11-01T07:47:46.469Z,6.20
2018-11-01T07:50:14.837Z,3.98
2018-11-01T07:52:43.041Z,3.80
2018-11-01T07:55:13.560Z,5.85
2018-11-01T07:57:41.727Z,4.97
2018-11-01T08:00:14.031Z,5.42
2018-11-01T08:02:43.034Z,5.10
2018-11-01T08:05:11.936Z,5.70
2018-11-01T08:07:40.638Z,6.05
2018-11-01T08:10:10.890Z,3.67
2018-11-01T08:12:39.167Z,5.60
2018-11-01T08:15:09.789Z,6.12
2018-11-01T08:17:38.177Z,6.35
2018-11-01T08:20:08.001Z,5.00
2018-11-01T08:22:35.910Z,6.72
2018-11-01T08:25:04.142Z,4.22
2018-11-01T08:27:32.474Z,5.33
2018-11-01T08:30:00.874Z,4.87
2018-11-01T08:32:29.061Z,4.50
2018-11-01T08:34:57.234Z,4.15
2018-11-01T08:37:25.410Z,5.50
2018-11-01T08:39:53.598Z,5.08
2018-11-01T08:42:21.798Z,7.40
2018-11-01T08:44:49.982Z,6.33
2018-11-01T08:47:18.162Z,7.55
2018-11-01T08:49:46.353Z,7.40
2018-11-01T08:52:14.750Z,6.70
2018-11-01T08:54:43.050Z,8.05
2018-11-01T08:57:11.238Z,8.23
2018-11-01T08:59:39.421Z,5.62
2018-11-01T09:02:07.606Z,4.45
2018-11-01T09:04:35.795Z,4.72
2018-11-01T09:07:03.979Z,6.15
2018-11-01T09:09:32.102Z,7.67
2018-11-01T09:12:00.249Z,7.40
2018-11-01T09:14:28.481Z,7.45
2018-11-01T09:16:56.626Z,6.05
2018-11-01T09:19:24.855Z,6.75
2018-11-01T09:21:52.986Z,7.90
2018-11-01T09:24:21.266Z,7.28
2018-11-01T09:26:49.529Z,6.42
2018-11-01T09:29:17.670Z,9.15
2018-11-01T09:31:46.862Z,4.33
2018-11-01T09:34:15.063Z,9.90
2018-11-01T09:36:43.233Z,7.42
2018-11-01T09:39:12.258Z,6.03
2018-11-01T09:41:40.543Z,6.83
2018-11-01T09:44:08.925Z,4.87
2018-11-01T09:46:37.509Z,7.83
2018-11-01T09:49:05.574Z,5.08
2018-11-01T09:51:33.685Z,5.10
2018-11-01T09:54:01.884Z,7.60
2018-11-01T09:56:30.102Z,7.50
2018-11-01T09:58:58.234Z,8.13
2018-11-01T10:01:26.327Z,5.30
2018-11-01T10:03:54.515Z,7.65
2018-11-01T10:06:22.694Z,11.12
2018-11-01T10:08:50.911Z,9.85
2018-11-01T10:11:19.193Z,5.08
2018-11-01T10:13:47.373Z,5.67
2018-11-01T10:16:15.708Z,4.85
2018-11-01T10:18:43.734Z,6.83
2018-11-01T10:21:11.975Z,7.22
2018-11-01T10:23:40.141Z,6.97
2018-11-01T10:26:08.306Z,8.10
2018-11-01T10:28:36.522Z,5.72
2018-11-01T10:31:05.350Z,8.60
2018-11-01T10:33:33.454Z,5.15
2018-11-01T10:36:01.563Z,8.40
2018-11-01T10:38:29.741Z,9.73
2018-11-01T10:40:58.039Z,10.15
2018-11-01T10:43:26.111Z,5.92
2018-11-01T10:45:54.306Z,7.65
2018-11-01T10:48:22.590Z,5.92
2018-11-01T10:50:50.693Z,7.47
2018-11-01T10:53:18.859Z,7.17
2018-11-01T10:55:47.079Z,7.70
2018-11-01T10:58:15.250Z,5.78
2018-11-01T11:00:48.980Z,6.55
2018-11-01T11:03:17.042Z,7.55
2018-11-01T11:05:45.238Z,6.03
2018-11-01T11:08:13.422Z,7.03
2018-11-01T11:10:41.622Z,6.75
2018-11-01T11:13:09.793Z,9.10
2018-11-01T11:15:37.993Z,7.53
2018-11-01T11:18:06.418Z,8.68
2018-11-01T11:20:34.852Z,9.15
2018-11-01T11:23:02.740Z,6.37
2018-11-01T11:25:31.024Z,6.90
2018-11-01T11:27:59.126Z,6.08
2018-11-01T11:30:27.445Z,8.98
2018-11-01T11:32:55.508Z,5.65
2018-11-01T11:35:23.718Z,6.08
2018-11-01T11:37:51.866Z,9.73
2018-11-01T11:40:20.066Z,9.00
2018-11-01T11:42:48.254Z,7.70
2018-11-01T11:45:16.430Z,8.80
2018-11-01T11:47:44.614Z,9.05
2018-11-01T11:50:13.536Z,9.60
2018-11-01T11:52:42.850Z,10.95
2018-11-01T11:55:11.345Z,6.83
2018-11-01T11:57:39.725Z,7.05
2018-11-01T12:00:10.791Z,8.88
2018-11-01T12:02:38.969Z,6.15
2018-11-01T12:05:07.686Z,10.25
2018-11-01T12:07:35.853Z,11.00
2018-11-01T12:10:04.205Z,7.92
2018-11-01T12:12:32.333Z,8.65
2018-11-01T12:15:00.522Z,7.55
2018-11-01T12:17:28.715Z,8.23
2018-11-01T12:19:56.890Z,8.70
2018-11-01T12:22:25.238Z,9.10
2018-11-01T12:24:53.253Z,8.15
2018-11-01T12:27:21.450Z,10.23
2018-11-01T12:29:49.650Z,8.68
2018-11-01T12:32:17.834Z,7.28
2018-11-01T12:34:46.022Z,7.50
2018-11-01T12:37:14.129Z,9.55
2018-11-01T12:39:42.282Z,10.53
2018-11-01T12:42:10.482Z,8.20
2018-11-01T12:44:38.676Z,9.55
2018-11-01T12:47:06.849Z,9.83
2018-11-01T12:49:35.082Z,7.85
2018-11-01T12:52:03.234Z,10.23
2018-11-01T12:54:31.394Z,8.98
2018-11-01T12:56:59.578Z,9.50
2018-11-01T12:59:27.773Z,8.43
2018-11-01T13:01:55.958Z,9.83
2018-11-01T13:04:24.165Z,6.65
2018-11-01T13:06:52.325Z,6.97
2018-11-01T13:09:20.514Z,6.75
2018-11-01T13:11:48.606Z,12.23
2018-11-01T13:14:16.785Z,9.53
2018-11-01T13:16:44.992Z,7.40
2018-11-01T13:19:13.163Z,7.78
2018-11-01T13:21:41.443Z,7.45
2018-11-01T13:24:09.538Z,8.00
2018-11-01T13:26:37.737Z,8.00
2018-11-01T13:29:06.270Z,7.35
2018-11-01T13:31:34.409Z,8.58
2018-11-01T13:34:02.579Z,7.60
2018-11-01T13:36:30.796Z,9.80
2018-11-01T13:38:58.958Z,7.80
2018-11-01T13:41:27.182Z,9.03
2018-11-01T13:43:55.350Z,7.55
2018-11-01T13:46:23.573Z,6.62
2018-11-01T13:48:51.728Z,5.80
2018-11-01T13:51:19.893Z,6.33
2018-11-01T13:53:48.082Z,7.60
2018-11-01T13:56:16.279Z,6.78
2018-11-01T13:58:44.466Z,8.90
2018-11-01T14:01:12.654Z,6.72
2018-11-01T14:03:40.874Z,6.80
2018-11-01T14:06:09.071Z,6.83
2018-11-01T14:08:37.222Z,6.67
2018-11-01T14:11:05.965Z,7.00
2018-11-01T14:13:34.241Z,7.35
2018-11-01T14:16:02.347Z,6.58
2018-11-01T14:18:30.486Z,6.22
2018-11-01T14:20:58.653Z,6.42
2018-11-01T14:23:26.861Z,8.35
2018-11-01T14:25:55.042Z,6.45
2018-11-01T14:28:23.239Z,6.90
2018-11-01T14:30:51.492Z,8.98
2018-11-01T14:33:19.594Z,8.58
2018-11-01T14:35:47.778Z,8.95
2018-11-01T14:38:15.986Z,7.33
2018-11-01T14:40:44.171Z,10.88
2018-11-01T14:43:13.035Z,9.93
2018-11-01T14:45:41.170Z,8.68
2018-11-01T14:48:09.360Z,6.83
2018-11-01T14:50:37.542Z,8.40
2018-11-01T14:53:06.509Z,7.70
2018-11-01T14:55:35.187Z,6.83
2018-11-01T14:58:03.657Z,7.72
2018-11-01T15:00:30.357Z,9.23
2018-11-01T15:02:58.538Z,6.70
2018-11-01T15:05:26.638Z,10.43
2018-11-01T15:07:54.810Z,8.80
2018-11-01T15:10:23.007Z,8.98
2018-11-01T15:12:51.201Z,7.05
2018-11-01T15:15:19.386Z,9.18
2018-11-01T15:17:47.565Z,7.67
2018-11-01T15:20:15.849Z,7.00
2018-11-01T15:22:43.951Z,8.78
2018-11-01T15:25:12.157Z,7.37
2018-11-01T15:27:40.326Z,8.85
2018-11-01T15:30:10.579Z,7.92
2018-11-01T15:32:38.644Z,7.75
2018-11-01T15:35:07.254Z,11.00
2018-11-01T15:37:35.406Z,10.38
2018-11-01T15:40:03.626Z,8.60
2018-11-01T15:42:31.801Z,11.43
2018-11-01T15:44:59.978Z,8.50
2018-11-01T15:47:28.150Z,10.98
2018-11-01T15:49:56.377Z,9.78
2018-11-01T15:52:24.538Z,10.82
2018-11-01T15:54:52.750Z,8.08
2018-11-01T15:57:20.910Z,9.15
2018-11-01T15:59:49.126Z,12.35
2018-11-01T16:02:17.327Z,8.15
2018-11-01T16:04:45.474Z,9.25
2018-11-01T16:07:13.647Z,6.72
2018-11-01T16:09:41.854Z,8.18
2018-11-01T16:12:10.014Z,8.10
2018-11-01T16:14:38.442Z,8.20
2018-11-01T16:17:06.602Z,6.95
2018-11-01T16:19:34.909Z,6.70
2018-11-01T16:22:02.870Z,7.55
2018-11-01T16:24:31.061Z,7.87
2018-11-01T16:26:59.312Z,8.65
2018-11-01T16:29:27.438Z,11.03
2018-11-01T16:31:55.630Z,8.75
2018-11-01T16:34:23.814Z,12.90
2018-11-01T16:36:52.068Z,12.43
2018-11-01T16:39:20.098Z,12.18
2018-11-01T16:41:48.269Z,10.40
2018-11-01T16:44:16.455Z,13.98
2018-11-01T16:46:44.654Z,12.10
2018-11-01T16:49:12.845Z,13.03
2018-11-01T16:51:41.021Z,11.03
2018-11-01T16:54:09.222Z,13.18
2018-11-01T16:56:37.413Z,10.80
2018-11-01T16:59:05.713Z,8.68
2018-11-01T17:01:33.906Z,10.38
2018-11-01T17:04:02.099Z,14.47
2018-11-01T17:06:30.262Z,12.78
2018-11-01T17:08:58.446Z,13.60
2018-11-01T17:11:26.647Z,15.05
2018-11-01T17:13:54.815Z,13.72
2018-11-01T17:16:23.010Z,11.28
2018-11-01T17:18:51.182Z,14.30
2018-11-01T17:21:19.389Z,14.98
2018-11-01T17:23:47.562Z,13.75
2018-11-01T17:26:15.764Z,13.60
2018-11-01T17:28:43.933Z,14.15
2018-11-01T17:31:12.121Z,15.88
2018-11-01T17:33:40.320Z,14.33
2018-11-01T17:36:08.504Z,11.55
2018-11-01T17:38:36.711Z,14.03
2018-11-01T17:41:05.018Z,13.58
2018-11-01T17:43:33.249Z,12.63
2018-11-01T17:46:01.421Z,11.30
2018-11-01T17:48:29.541Z,12.20
2018-11-01T17:50:57.719Z,13.45
2018-11-01T17:53:25.918Z,11.60
2018-11-01T17:55:54.094Z,12.85
2018-11-01T17:58:22.302Z,15.43
2018-11-01T18:00:50.479Z,13.60
2018-11-01T18:03:18.665Z,15.88
2018-11-01T18:05:46.769Z,14.83
2018-11-01T18:08:14.986Z,18.27
2018-11-01T18:10:43.122Z,24.32
2018-11-01T18:13:11.312Z,23.67
2018-11-01T18:15:39.506Z,20.40
2018-11-01T18:18:07.697Z,24.87
2018-11-01T18:20:35.858Z,14.63
2018-11-01T18:23:04.108Z,16.62
2018-11-01T18:25:32.296Z,12.03
2018-11-01T18:28:00.430Z,15.20
2018-11-01T18:30:28.614Z,12.47
2018-11-01T18:32:56.990Z,18.42
2018-11-01T18:35:24.878Z,12.80
2018-11-01T18:37:53.095Z,14.73
2018-11-01T18:40:21.274Z,12.33
2018-11-01T18:42:49.454Z,10.50
2018-11-01T18:45:17.629Z,18.87
2018-11-01T18:47:45.845Z,22.70
2018-11-01T18:50:15.342Z,22.22
2018-11-01T18:52:43.534Z,20.65
2018-11-01T18:55:12.434Z,20.40
2018-11-01T18:57:40.894Z,23.75
2018-11-01T19:00:11.717Z,23.05
2018-11-01T19:02:39.971Z,20.20
2018-11-01T19:05:08.792Z,22.85
2018-11-01T19:07:36.941Z,20.88
2018-11-01T19:10:05.710Z,18.50
2018-11-01T19:12:33.837Z,19.35
2018-11-01T19:15:02.023Z,18.90
2018-11-01T19:17:30.339Z,14.53
2018-11-01T19:19:58.502Z,13.68
2018-11-01T19:22:26.603Z,19.05
2018-11-01T19:24:54.782Z,16.27
2018-11-01T19:27:23.254Z,14.07
2018-11-01T19:29:51.158Z,15.43
2018-11-01T19:32:19.534Z,15.25
2018-11-01T19:34:47.722Z,12.13
2018-11-01T19:37:15.902Z,10.35
2018-11-01T19:39:44.103Z,15.18
2018-11-01T19:42:12.318Z,14.03
2018-11-01T19:44:40.686Z,13.32
2018-11-01T19:47:08.863Z,12.53
2018-11-01T19:49:37.116Z,12.00
2018-11-01T19:52:05.911Z,12.68
2018-11-01T19:54:34.112Z,10.80
2018-11-01T19:57:02.347Z,12.85
2018-11-01T19:59:30.514Z,10.32
2018-11-01T20:01:58.730Z,11.20
2018-11-01T20:04:26.924Z,11.30
2018-11-01T20:06:55.066Z,11.03
2018-11-01T20:09:23.261Z,11.88
2018-11-01T20:11:51.437Z,10.03
2018-11-01T20:14:19.647Z,11.65
2018-11-01T20:16:47.818Z,10.93
2018-11-01T20:19:16.113Z,12.30
2018-11-01T20:21:44.321Z,9.28
2018-11-01T20:24:12.394Z,10.82
2018-11-01T20:26:40.565Z,9.78
2018-11-01T20:29:09.333Z,12.75
2018-11-01T20:31:37.474Z,9.30
2018-11-01T20:34:05.671Z,11.25
2018-11-01T20:36:33.818Z,14.63
2018-11-01T20:39:02.043Z,12.10
2018-11-01T20:41:30.200Z,13.40
2018-11-01T20:43:58.398Z,20.48
2018-11-01T20:46:26.581Z,28.75
2018-11-01T20:48:54.773Z,15.08
2018-11-01T20:51:22.939Z,13.40
2018-11-01T20:53:51.138Z,12.40
2018-11-01T20:56:19.317Z,59.25
2018-11-01T20:58:47.502Z,21.65
2018-11-01T21:01:15.682Z,13.13
2018-11-01T21:03:43.870Z,11.48
2018-11-01T21:06:12.053Z,15.55
2018-11-01T21:08:40.253Z,10.00
2018-11-01T21:11:08.413Z,11.05
2018-11-01T21:13:36.515Z,12.05
2018-11-01T21:16:04.986Z,13.08
2018-11-01T21:18:33.081Z,13.25
2018-11-01T21:21:01.285Z,12.30
2018-11-01T21:23:29.458Z,12.43
2018-11-01T21:25:57.653Z,13.65
2018-11-01T21:28:25.838Z,12.88
2018-11-01T21:30:54.034Z,9.60
2018-11-01T21:33:22.217Z,8.18
2018-11-01T21:35:50.514Z,11.40
2018-11-01T21:38:18.582Z,8.43
2018-11-01T21:40:46.774Z,9.88
2018-11-01T21:43:15.133Z,11.95
2018-11-01T21:45:43.261Z,9.45
2018-11-01T21:48:11.350Z,10.90
2018-11-01T21:50:39.530Z,9.55
2018-11-01T21:53:07.783Z,11.38
2018-11-01T21:55:35.906Z,11.38
2018-11-01T21:58:04.085Z,11.60
2018-11-01T22:00:32.303Z,10.95
2018-11-01T22:03:00.450Z,9.53
2018-11-01T22:05:28.549Z,10.85
2018-11-01T22:07:56.720Z,8.80
2018-11-01T22:10:24.906Z,9.65
2018-11-01T22:12:53.106Z,9.40
2018-11-01T22:15:21.286Z,9.03
2018-11-01T22:17:49.470Z,11.18
2018-11-01T22:20:17.665Z,12.13
2018-11-01T22:22:45.833Z,9.65
2018-11-01T22:25:13.943Z,9.85
2018-11-01T22:27:42.117Z,10.48
2018-11-01T22:30:11.366Z,10.48
2018-11-01T22:32:40.146Z,9.25
2018-11-01T22:35:09.086Z,8.38
2018-11-01T22:37:37.449Z,10.58
2018-11-01T22:40:05.916Z,10.63
2018-11-01T22:42:34.103Z,9.35
2018-11-01T22:45:02.301Z,11.40
2018-11-01T22:47:30.473Z,9.13
2018-11-01T22:49:58.673Z,10.72
2018-11-01T22:52:26.854Z,12.88
2018-11-01T22:54:55.046Z,9.83
2018-11-01T22:57:23.238Z,11.57
2018-11-01T22:59:51.498Z,11.08
2018-11-01T23:02:19.637Z,11.55
2018-11-01T23:04:47.809Z,10.35
2018-11-01T23:07:15.982Z,13.10
2018-11-01T23:09:44.190Z,11.73
2018-11-01T23:12:12.369Z,12.47
2018-11-01T23:14:40.558Z,12.95
2018-11-01T23:17:08.741Z,16.35
2018-11-01T23:19:36.930Z,15.13
2018-11-01T23:22:05.434Z,14.10
2018-11-01T23:24:33.543Z,18.75
2018-11-01T23:27:01.708Z,21.27
2018-11-01T23:29:29.905Z,16.52
2018-11-01T23:31:58.074Z,17.00
2018-11-01T23:34:26.259Z,16.57
2018-11-01T23:36:59.734Z,17.42
2018-11-01T23:39:33.342Z,17.25
2018-11-01T23:42:06.918Z,15.35
2018-11-01T23:44:40.561Z,19.37
2018-11-01T23:47:14.134Z,20.23
2018-11-01T23:49:56.434Z,17.00
2018-11-01T23:52:25.985Z,19.23
2018-11-01T23:54:54.145Z,19.62
2018-11-01T23:57:22.333Z,20.10
2018-11-01T23:59:50.501Z,19.57
